Time;durP1;ratioP1;P1;durP2;ratioP2;P2;SDS_P1;SDS_P2;PMS_P1;PMS_P2;Temp;Humidity;BMP_temperature;BMP_pressure;BME280_temperature;BME280_humidity;BME280_pressure;Samples;Min_cycle;Max_cycle;Signal;HPM_P1;HPM_P2
2024/02/02 00:00:29;;;;;;;0.65;0.65;;;;;;;3.35;100.00;98352.16;29395;206;64013;-57
2024/02/02 00:01:01;;;;;;;0.60;0.60;;;;;;;3.34;100.00;98355.88;29396;214;63000;-64
2024/02/02 00:01:33;;;;;;;0.60;0.60;;;;;;;3.34;100.00;98355.88;29396;229;63009;-56
2024/02/02 00:02:05;;;;;;;0.60;0.60;;;;;;;3.36;100.00;98361.03;29396;202;63004;-62
2024/02/02 00:02:39;;;;;;;0.60;0.60;;;;;;;3.39;100.00;98359.81;29396;231;63009;-56
2024/02/02 00:03:11;;;;;;;0.60;0.60;;;;;;;3.41;100.00;98360.41;29396;205;63004;-57
2024/02/02 00:03:42;;;;;;;0.60;0.60;;;;;;;3.37;100.00;98358.16;29396;250;63009;-64
2024/02/02 00:04:14;;;;;;;0.60;0.60;;;;;;;3.32;100.00;98355.28;29395;196;64004;-56
2024/02/02 00:04:45;;;;;;;0.60;0.60;;;;;;;3.29;100.00;98361.06;29396;356;63008;-57
2024/02/02 00:05:17;;;;;;;0.60;0.60;;;;;;;3.28;100.00;98361.25;29396;219;63005;-55
2024/02/02 00:05:49;;;;;;;0.70;0.70;;;;;;;3.24;100.00;98358.19;29395;214;64014;-63
2024/02/02 00:06:20;;;;;;;0.60;0.60;;;;;;;3.22;100.00;98354.87;29396;197;63005;-56
2024/02/02 00:06:52;;;;;;;0.60;0.60;;;;;;;3.20;100.00;98358.81;29395;222;64013;-56
2024/02/02 00:07:23;;;;;;;0.68;0.68;;;;;;;3.17;100.00;98357.34;29396;280;63005;-65
2024/02/02 00:07:54;;;;;;;0.60;0.60;;;;;;;3.18;100.00;98363.56;29397;213;63009;-56
2024/02/02 00:08:26;;;;;;;0.70;0.70;;;;;;;3.19;100.00;98355.28;29397;283;63005;-57
2024/02/02 00:08:57;;;;;;;0.60;0.60;;;;;;;3.21;100.00;98353.22;29397;305;63009;-56
2024/02/02 00:09:28;;;;;;;0.62;0.62;;;;;;;3.18;100.00;98353.66;29397;303;63004;-58
2024/02/02 00:10:01;;;;;;;0.60;0.60;;;;;;;3.16;100.00;98355.72;29397;232;63021;-56
2024/02/02 00:10:36;;;;;;;0.70;0.70;;;;;;;3.16;100.00;98355.72;29397;221;63004;-56
2024/02/02 00:11:07;;;;;;;0.60;0.60;;;;;;;3.20;100.00;98348.06;29397;200;63009;-56
2024/02/02 00:11:40;;;;;;;0.70;0.70;;;;;;;3.22;100.00;98356.72;29397;215;63004;-54
2024/02/02 00:12:12;;;;;;;0.60;0.60;;;;;;;3.23;100.00;98353.84;29396;236;64013;-54
2024/02/02 00:12:44;;;;;;;0.60;0.60;;;;;;;3.24;100.00;98350.13;29397;229;63005;-55
2024/02/02 00:13:15;;;;;;;0.60;0.60;;;;;;;3.25;100.00;98343.72;29397;215;63009;-55
2024/02/02 00:13:48;;;;;;;0.70;0.70;;;;;;;3.27;100.00;98352.41;29397;209;63005;-56
2024/02/02 00:14:20;;;;;;;0.60;0.60;;;;;;;3.27;100.00;98352.41;29397;233;63009;-56
2024/02/02 00:14:52;;;;;;;0.70;0.70;;;;;;;3.29;100.00;98349.50;29397;221;63005;-56
2024/02/02 00:15:24;;;;;;;0.60;0.60;;;;;;;3.30;100.00;98351.97;29397;212;63009;-56
2024/02/02 00:15:57;;;;;;;0.60;0.60;;;;;;;3.33;100.00;98350.72;29397;206;63005;-56
2024/02/02 00:16:29;;;;;;;0.60;0.60;;;;;;;3.35;100.00;98352.16;29397;211;63009;-56
2024/02/02 00:17:00;;;;;;;0.60;0.60;;;;;;;3.35;100.00;98346.81;29397;256;63004;-56
2024/02/02 00:17:32;;;;;;;0.60;0.60;;;;;;;3.34;100.00;98350.53;29396;202;64013;-56
2024/02/02 00:18:04;;;;;;;0.60;0.60;;;;;;;3.34;100.00;98347.84;29397;202;63010;-56
2024/02/02 00:18:35;;;;;;;0.60;0.60;;;;;;;3.35;100.00;98346.81;29397;253;63009;-56
2024/02/02 00:19:10;;;;;;;0.60;0.60;;;;;;;3.36;100.00;98337.72;29397;248;63015;-56
2024/02/02 00:19:43;;;;;;;0.60;0.60;;;;;;;3.36;100.00;98340.41;29397;229;63008;-57
2024/02/02 00:20:14;;;;;;;0.60;0.60;;;;;;;3.35;100.00;98338.75;29397;204;63005;-56
2024/02/02 00:20:46;;;;;;;0.50;0.50;;;;;;;3.36;100.00;98343.09;29397;222;63009;-56
2024/02/02 00:21:17;;;;;;;0.60;0.60;;;;;;;3.34;100.00;98345.16;29396;350;63005;-56
2024/02/02 00:21:49;;;;;;;0.60;0.60;;;;;;;3.30;100.00;98351.97;29396;198;63009;-55
2024/02/02 00:22:22;;;;;;;0.60;0.60;;;;;;;3.26;100.00;98350.75;29396;227;63005;-56
2024/02/02 00:22:54;;;;;;;0.60;0.60;;;;;;;3.24;100.00;98349.31;29395;218;64013;-56
2024/02/02 00:23:25;;;;;;;0.60;0.60;;;;;;;3.22;100.00;98343.31;29397;198;63005;-56
2024/02/02 00:23:57;;;;;;;0.60;0.60;;;;;;;3.22;100.00;98354.06;29396;203;63009;-56
2024/02/02 00:24:28;;;;;;;0.60;0.60;;;;;;;3.16;100.00;98355.72;29396;219;63004;-62
2024/02/02 00:24:59;;;;;;;0.60;0.60;;;;;;;3.11;100.00;98350.19;29396;212;63018;-55
2024/02/02 00:25:30;;;;;;;0.60;0.60;;;;;;;3.09;100.00;98349.56;29396;218;63000;-57
2024/02/02 00:26:03;;;;;;;0.60;0.60;;;;;;;3.10;100.00;98353.91;29396;223;63008;-56
2024/02/02 00:26:35;;;;;;;0.60;0.60;;;;;;;3.12;100.00;98343.75;29396;211;63018;-57
2024/02/02 00:27:06;;;;;;;0.60;0.60;;;;;;;3.15;100.00;98353.25;29396;222;63008;-63
2024/02/02 00:27:38;;;;;;;0.60;0.60;;;;;;;3.15;100.00;98348.69;29396;323;63004;-55
2024/02/02 00:28:10;;;;;;;0.60;0.60;;;;;;;3.16;100.00;98349.53;29395;233;64014;-55
2024/02/02 00:28:41;;;;;;;0.60;0.60;;;;;;;3.17;100.00;98352.00;29396;317;63005;-56
2024/02/02 00:29:14;;;;;;;0.60;0.60;;;;;;;3.17;100.00;98346.63;29396;202;63009;-56
2024/02/02 00:29:46;;;;;;;0.60;0.60;;;;;;;3.17;100.00;98351.16;29396;226;63005;-56
2024/02/02 00:30:17;;;;;;;0.60;0.60;;;;;;;3.17;100.00;98354.69;29396;216;63009;-56
2024/02/02 00:30:49;;;;;;;0.60;0.60;;;;;;;3.12;100.00;98342.97;29396;220;63005;-56
2024/02/02 00:31:21;;;;;;;0.60;0.60;;;;;;;3.09;100.00;98354.94;29396;203;63009;-56
2024/02/02 00:31:53;;;;;;;0.60;0.60;;;;;;;3.10;100.00;98351.22;29396;229;63005;-56
2024/02/02 00:32:25;;;;;;;0.60;0.60;;;;;;;3.12;100.00;98351.78;29396;321;63009;-56
2024/02/02 00:32:56;;;;;;;0.60;0.60;;;;;;;3.12;100.00;98353.69;29396;222;63004;-58
2024/02/02 00:33:27;;;;;;;0.60;0.60;;;;;;;3.15;100.00;98347.87;29395;242;64013;-55
2024/02/02 00:33:59;;;;;;;0.60;0.60;;;;;;;3.16;100.00;98350.34;29396;350;63004;-56
2024/02/02 00:34:30;;;;;;;0.60;0.60;;;;;;;3.16;100.00;98350.34;29396;204;63008;-56
2024/02/02 00:35:02;;;;;;;0.60;0.60;;;;;;;3.18;100.00;98347.47;29396;285;63004;-56
2024/02/02 00:35:34;;;;;;;0.60;0.60;;;;;;;3.19;100.00;98343.75;29396;218;63009;-56
2024/02/02 00:36:06;;;;;;;0.60;0.60;;;;;;;3.18;100.00;98342.09;29396;202;63005;-56
2024/02/02 00:36:37;;;;;;;0.60;0.60;;;;;;;3.16;100.00;98346.84;29396;204;63009;-56
2024/02/02 00:37:10;;;;;;;0.60;0.60;;;;;;;3.15;100.00;98345.19;29396;224;63011;-56
2024/02/02 00:37:42;;;;;;;0.70;0.70;;;;;;;3.12;100.00;98341.06;29396;216;63009;-56
2024/02/02 00:38:13;;;;;;;0.60;0.60;;;;;;;3.11;100.00;98342.13;29396;369;63005;-56
2024/02/02 00:38:44;;;;;;;0.70;0.70;;;;;;;3.08;100.00;98339.87;29395;340;64013;-56
2024/02/02 00:39:16;;;;;;;0.70;0.70;;;;;;;3.07;100.00;98337.41;29396;215;63005;-56
2024/02/02 00:39:48;;;;;;;0.60;0.60;;;;;;;3.06;100.00;98336.56;29396;210;63017;-57
2024/02/02 00:40:19;;;;;;;0.60;0.60;;;;;;;3.03;100.00;98345.03;29395;220;64009;-56
2024/02/02 00:40:51;;;;;;;0.60;0.60;;;;;;;2.97;100.00;98327.09;29396;210;63009;-56
2024/02/02 00:41:22;;;;;;;0.65;0.65;;;;;;;3.07;100.00;98340.06;29396;203;63004;-56
2024/02/02 00:41:53;;;;;;;0.60;0.60;;;;;;;3.08;100.00;98341.72;29396;233;63009;-56
2024/02/02 00:42:24;;;;;;;0.70;0.70;;;;;;;3.09;100.00;98338.00;29396;228;63004;-56
2024/02/02 00:42:56;;;;;;;0.60;0.60;;;;;;;3.08;100.00;98337.19;29396;203;63009;-56
2024/02/02 00:43:27;;;;;;;0.60;0.60;;;;;;;3.10;100.00;98340.47;29396;262;63005;-56
2024/02/02 00:43:59;;;;;;;0.60;0.60;;;;;;;3.10;100.00;98335.12;29396;202;63009;-57
2024/02/02 00:44:30;;;;;;;0.60;0.60;;;;;;;3.11;100.00;98336.78;29396;238;63005;-56
2024/02/02 00:45:02;;;;;;;0.70;0.70;;;;;;;3.11;100.00;98333.25;29396;214;63009;-56
2024/02/02 00:45:34;;;;;;;0.60;0.60;;;;;;;3.09;100.00;98333.47;29395;224;64009;-56
2024/02/02 00:46:05;;;;;;;0.80;0.80;;;;;;;3.09;100.00;98333.47;29396;219;63016;-56
2024/02/02 00:46:37;;;;;;;0.70;0.70;;;;;;;3.09;100.00;98340.69;29396;310;63004;-56
2024/02/02 00:47:09;;;;;;;0.60;0.60;;;;;;;3.07;100.00;98330.19;29396;197;63009;-56
2024/02/02 00:47:43;;;;;;;0.60;0.60;;;;;;;3.06;100.00;98333.88;29396;214;63004;-56
2024/02/02 00:48:15;;;;;;;0.70;0.70;;;;;;;3.07;100.00;98334.72;29396;370;63009;-56
2024/02/02 00:48:46;;;;;;;0.60;0.60;;;;;;;3.06;100.00;98338.44;29396;268;63004;-55
2024/02/02 00:49:20;;;;;;;0.60;0.60;;;;;;;3.03;100.00;98340.50;29396;220;63008;-56
2024/02/02 00:49:52;;;;;;;0.60;0.60;;;;;;;3.06;100.00;98344.63;29396;229;63004;-57
2024/02/02 00:50:23;;;;;;;0.50;0.50;;;;;;;3.07;100.00;98335.53;29396;262;63009;-56
2024/02/02 00:50:58;;;;;;;0.60;0.60;;;;;;;3.09;100.00;98341.50;29395;209;64009;-55
2024/02/02 00:51:29;;;;;;;0.60;0.60;;;;;;;3.12;100.00;98333.03;29396;262;63009;-57
2024/02/02 00:52:01;;;;;;;0.60;0.60;;;;;;;3.12;100.00;98327.66;29396;233;63005;-56
2024/02/02 00:52:35;;;;;;;0.60;0.60;;;;;;;3.11;100.00;98334.09;29396;238;63009;-56
2024/02/02 00:53:06;;;;;;;0.60;0.60;;;;;;;3.12;100.00;98332.22;29396;207;63005;-56
2024/02/02 00:53:37;;;;;;;0.60;0.60;;;;;;;3.11;100.00;98325.22;29396;207;63009;-56
2024/02/02 00:54:10;;;;;;;0.60;0.60;;;;;;;3.10;100.00;98329.75;29396;212;63016;-56
2024/02/02 00:54:41;;;;;;;0.60;0.60;;;;;;;3.11;100.00;98331.41;29396;206;63009;-55
2024/02/02 00:55:13;;;;;;;0.70;0.70;;;;;;;3.11;100.00;98336.78;29396;217;63004;-56
2024/02/02 00:55:44;;;;;;;0.70;0.70;;;;;;;3.12;100.00;98335.72;29396;208;63009;-56
2024/02/02 00:56:15;;;;;;;0.60;0.60;;;;;;;3.13;100.00;98336.53;29395;197;64008;-63
2024/02/02 00:56:46;;;;;;;0.60;0.60;;;;;;;3.17;100.00;98332.41;29396;202;63008;-56
2024/02/02 00:57:18;;;;;;;0.60;0.60;;;;;;;3.19;100.00;98333.00;29396;197;63005;-56
2024/02/02 00:57:50;;;;;;;0.70;0.70;;;;;;;3.17;99.95;98335.91;29396;258;63009;-56
2024/02/02 00:58:21;;;;;;;0.60;0.60;;;;;;;3.15;100.00;98332.59;29396;197;63005;-56
2024/02/02 00:58:52;;;;;;;0.60;0.60;;;;;;;3.14;100.00;98333.63;29396;220;63009;-55
2024/02/02 00:59:24;;;;;;;0.60;0.60;;;;;;;3.12;100.00;98340.28;29396;270;63005;-56
2024/02/02 00:59:55;;;;;;;0.60;0.60;;;;;;;3.06;100.00;98328.53;29396;210;63009;-56
2024/02/02 01:00:27;;;;;;;0.60;0.60;;;;;;;3.02;100.00;98338.03;29396;239;63005;-55
2024/02/02 01:01:01;;;;;;;0.60;0.60;;;;;;;3.03;100.00;98334.31;29396;205;63009;-64
2024/02/02 01:01:33;;;;;;;0.60;0.60;;;;;;;3.03;100.00;98335.12;29395;291;64009;-57
2024/02/02 01:02:04;;;;;;;0.60;0.60;;;;;;;3.04;100.00;98338.63;29396;298;63009;-56
2024/02/02 01:02:38;;;;;;;0.60;0.60;;;;;;;3.03;100.00;98334.31;29396;205;63004;-56
2024/02/02 01:03:09;;;;;;;0.60;0.60;;;;;;;3.03;100.00;98337.00;29396;196;63009;-56
2024/02/02 01:03:40;;;;;;;0.60;0.60;;;;;;;3.07;100.00;98334.72;29396;220;63004;-56
2024/02/02 01:04:12;;;;;;;0.60;0.60;;;;;;;3.08;100.00;98331.81;29396;205;63008;-56
2024/02/02 01:04:44;;;;;;;0.60;0.60;;;;;;;3.09;100.00;98330.78;29396;204;63005;-56
2024/02/02 01:05:15;;;;;;;0.62;0.62;;;;;;;3.10;100.00;98329.75;29396;220;63018;-63
2024/02/02 01:05:47;;;;;;;0.70;0.70;;;;;;;3.12;100.00;98324.19;29396;316;63010;-56
2024/02/02 01:06:18;;;;;;;0.60;0.60;;;;;;;3.13;100.00;98326.63;29396;239;63009;-56
2024/02/02 01:06:50;;;;;;;0.60;0.60;;;;;;;3.14;100.00;98324.78;29395;202;64009;-56
2024/02/02 01:07:21;;;;;;;0.60;0.60;;;;;;;3.14;100.00;98320.22;29396;203;63009;-56
2024/02/02 01:07:53;;;;;;;0.60;0.60;;;;;;;3.15;100.00;98316.50;29396;305;63005;-56
2024/02/02 01:08:24;;;;;;;0.60;0.60;;;;;;;3.16;100.00;98318.16;29396;222;63009;-56
2024/02/02 01:08:55;;;;;;;0.60;0.60;;;;;;;3.17;100.00;98319.81;29396;248;63004;-55
2024/02/02 01:09:27;;;;;;;0.60;0.60;;;;;;;3.18;99.83;98316.09;29396;214;63009;-56
2024/02/02 01:09:59;;;;;;;0.60;0.60;;;;;;;3.19;99.37;98311.56;29397;271;63004;-56
2024/02/02 01:10:31;;;;;;;0.60;0.60;;;;;;;3.22;99.44;98313.81;29397;202;63009;-56
2024/02/02 01:11:03;;;;;;;0.60;0.60;;;;;;;3.22;99.49;98314.63;29397;224;63004;-56
2024/02/02 01:11:36;;;;;;;0.60;0.60;;;;;;;3.25;98.81;98310.72;29397;376;63008;-65
2024/02/02 01:12:08;;;;;;;0.60;0.60;;;;;;;3.25;98.73;98311.53;29395;231;64008;-56
2024/02/02 01:12:44;;;;;;;0.62;0.62;;;;;;;3.25;98.51;98306.19;29397;213;63009;-56
2024/02/02 01:13:16;;;;;;;0.60;0.60;;;;;;;3.24;98.59;98312.56;29395;210;63005;-62
2024/02/02 01:13:49;;;;;;;0.60;0.60;;;;;;;3.25;99.23;98305.34;29397;277;63009;-56
2024/02/02 01:14:21;;;;;;;0.60;0.60;;;;;;;3.27;98.83;98304.09;29395;206;63005;-56
2024/02/02 01:14:53;;;;;;;0.65;0.65;;;;;;;3.29;97.72;98307.41;29395;218;63009;-56
2024/02/02 01:15:25;;;;;;;0.60;0.60;;;;;;;3.35;96.31;98305.72;29395;203;63005;-56
2024/02/02 01:15:58;;;;;;;0.70;0.70;;;;;;;3.36;95.24;98308.22;29395;230;63009;-56
2024/02/02 01:16:29;;;;;;;0.62;0.62;;;;;;;3.36;94.78;98305.53;29395;315;63004;-56
2024/02/02 01:17:01;;;;;;;0.60;0.60;;;;;;;3.34;94.91;98302.22;29395;239;63009;-56
2024/02/02 01:17:33;;;;;;;0.60;0.60;;;;;;;3.34;95.45;98302.22;29393;294;64009;-56
2024/02/02 01:18:07;;;;;;;0.70;0.70;;;;;;;3.34;95.34;98298.72;29395;280;63009;-56
2024/02/02 01:18:39;;;;;;;0.70;0.70;;;;;;;3.33;95.76;98305.94;29395;225;63004;-56
2024/02/02 01:19:11;;;;;;;0.60;0.60;;;;;;;3.34;95.85;98307.59;29395;307;63008;-56
2024/02/02 01:19:43;;;;;;;0.60;0.60;;;;;;;3.33;96.04;98308.63;29395;203;63004;-56
2024/02/02 01:20:16;;;;;;;0.60;0.60;;;;;;;3.35;96.12;98311.09;29395;250;63009;-56
2024/02/02 01:20:50;;;;;;;0.70;0.70;;;;;;;3.35;96.42;98317.28;29395;218;63005;-56
2024/02/02 01:21:22;;;;;;;0.60;0.60;;;;;;;3.35;96.48;98317.28;29395;198;63009;-56
2024/02/02 01:21:54;;;;;;;0.60;0.60;;;;;;;3.37;96.02;98325.94;29395;265;63005;-56
2024/02/02 01:22:25;;;;;;;0.60;0.60;;;;;;;3.37;95.10;98317.09;29395;225;63009;-56
2024/02/02 01:22:56;;;;;;;0.62;0.62;;;;;;;3.39;95.06;98316.87;29393;291;64009;-63
2024/02/02 01:23:28;;;;;;;0.60;0.60;;;;;;;3.39;95.03;98315.00;29395;222;63009;-56
2024/02/02 01:24:00;;;;;;;0.60;0.60;;;;;;;3.41;94.64;98325.53;29395;202;63004;-56
2024/02/02 01:24:31;;;;;;;0.60;0.60;;;;;;;3.40;94.74;98319.34;29395;252;63009;-55
2024/02/02 01:25:04;;;;;;;0.60;0.60;;;;;;;3.39;95.04;98317.69;29395;227;63004;-56
2024/02/02 01:25:36;;;;;;;0.60;0.60;;;;;;;3.39;95.18;98311.50;29395;206;63009;-56
2024/02/02 01:26:07;;;;;;;0.60;0.60;;;;;;;3.39;95.25;98309.66;29395;296;63004;-56
2024/02/02 01:26:38;;;;;;;0.70;0.70;;;;;;;3.36;95.65;98313.56;29395;222;63008;-64
2024/02/02 01:27:09;;;;;;;0.60;0.60;;;;;;;3.36;95.68;98310.88;29395;220;63004;-56
2024/02/02 01:27:42;;;;;;;0.60;0.60;;;;;;;3.35;95.79;98319.97;29395;219;63009;-56
2024/02/02 01:28:13;;;;;;;0.60;0.60;;;;;;;3.34;96.24;98304.09;29393;219;64009;-56
2024/02/02 01:28:44;;;;;;;0.70;0.70;;;;;;;3.32;96.30;98312.34;29395;240;63009;-56
2024/02/02 01:29:15;;;;;;;0.70;0.70;;;;;;;3.32;96.77;98311.53;29395;285;63015;-63
2024/02/02 01:29:48;;;;;;;0.70;0.70;;;;;;;3.33;96.84;98308.63;29395;243;63009;-56
2024/02/02 01:30:20;;;;;;;0.60;0.60;;;;;;;3.32;97.03;98312.34;29395;205;63005;-56
2024/02/02 01:30:51;;;;;;;0.60;0.60;;;;;;;3.33;96.99;98318.53;29395;222;63009;-56
2024/02/02 01:31:23;;;;;;;0.65;0.65;;;;;;;3.31;97.16;98310.69;29395;215;63005;-56
2024/02/02 01:31:54;;;;;;;0.60;0.60;;;;;;;3.31;97.34;98313.38;29395;202;63009;-56
2024/02/02 01:32:26;;;;;;;0.55;0.55;;;;;;;3.30;97.37;98311.72;29395;200;63004;-56
2024/02/02 01:33:01;;;;;;;0.60;0.60;;;;;;;3.28;97.79;98311.13;29395;203;63009;-56
2024/02/02 01:33:33;;;;;;;0.60;0.60;;;;;;;3.25;97.81;98311.53;29393;196;64009;-63
2024/02/02 01:34:04;;;;;;;0.60;0.60;;;;;;;3.24;98.06;98304.53;29395;209;63008;-56
2024/02/02 01:34:36;;;;;;;0.70;0.70;;;;;;;3.22;98.30;98301.22;29395;206;63004;-56
2024/02/02 01:35:08;;;;;;;0.60;0.60;;;;;;;3.21;98.49;98294.22;29395;205;63009;-56
2024/02/02 01:35:41;;;;;;;0.60;0.60;;;;;;;3.21;98.37;98298.75;29395;228;63004;-56
2024/02/02 01:36:12;;;;;;;0.68;0.68;;;;;;;3.19;98.18;98290.09;29395;244;63024;-56
2024/02/02 01:36:43;;;;;;;0.60;0.60;;;;;;;3.19;97.95;98300.81;29395;204;63005;-57
2024/02/02 01:37:14;;;;;;;0.60;0.60;;;;;;;3.19;97.83;98298.16;29395;230;63009;-56
2024/02/02 01:37:46;;;;;;;0.60;0.60;;;;;;;3.19;97.85;98292.78;29395;219;63005;-57
2024/02/02 01:38:17;;;;;;;0.60;0.60;;;;;;;3.18;97.83;98300.00;29395;205;63027;-57
2024/02/02 01:38:50;;;;;;;0.60;0.60;;;;;;;3.19;97.39;98295.47;29393;238;64009;-56
2024/02/02 01:39:21;;;;;;;0.60;0.60;;;;;;;3.20;96.95;98297.94;29395;202;63009;-56
2024/02/02 01:39:53;;;;;;;0.60;0.60;;;;;;;3.21;96.85;98299.59;29395;215;63004;-56
2024/02/02 01:40:24;;;;;;;0.60;0.60;;;;;;;3.21;96.86;98299.59;29395;220;63009;-56
2024/02/02 01:40:55;;;;;;;0.68;0.68;;;;;;;3.21;96.83;98302.25;29395;304;63004;-56
2024/02/02 01:41:27;;;;;;;0.70;0.70;;;;;;;3.22;96.76;98300.41;29395;289;63009;-56
2024/02/02 01:42:00;;;;;;;0.60;0.60;;;;;;;3.22;96.94;98295.03;29395;237;63004;-56
2024/02/02 01:42:36;;;;;;;0.60;0.60;;;;;;;3.22;96.75;98298.53;29395;199;63009;-55
2024/02/02 01:43:08;;;;;;;0.60;0.60;;;;;;;3.24;96.78;98292.97;29395;198;63005;-56
2024/02/02 01:43:39;;;;;;;0.60;0.60;;;;;;;3.22;96.77;98298.53;29395;220;63016;-56
2024/02/02 01:44:11;;;;;;;0.70;0.70;;;;;;;3.22;96.54;98295.88;29393;221;64009;-56
2024/02/02 01:44:43;;;;;;;0.60;0.60;;;;;;;3.23;96.73;98296.69;29395;233;63009;-57
2024/02/02 01:45:15;;;;;;;0.70;0.70;;;;;;;3.23;97.12;98294.84;29393;289;64009;-56
2024/02/02 01:45:46;;;;;;;0.60;0.60;;;;;;;3.22;96.85;98301.22;29395;412;63009;-56
2024/02/02 01:46:18;;;;;;;0.70;0.70;;;;;;;3.22;96.79;98293.19;29395;202;63005;-56
2024/02/02 01:46:49;;;;;;;0.70;0.70;;;;;;;3.20;96.77;98297.09;29395;243;63009;-56
2024/02/02 01:47:20;;;;;;;0.65;0.65;;;;;;;3.18;96.71;98297.31;29395;213;63004;-56
2024/02/02 01:47:52;;;;;;;0.60;0.60;;;;;;;3.16;95.81;98294.03;29395;281;63009;-57
2024/02/02 01:48:25;;;;;;;0.68;0.68;;;;;;;3.15;96.30;98300.41;29395;204;63004;-55
2024/02/02 01:48:57;;;;;;;0.60;0.60;;;;;;;3.16;96.31;98296.72;29395;322;63020;-56
2024/02/02 01:49:29;;;;;;;0.60;0.60;;;;;;;3.13;95.35;98296.31;29395;217;63015;-56
2024/02/02 01:50:01;;;;;;;0.60;0.60;;;;;;;3.12;94.71;98298.16;29395;207;63009;-56
2024/02/02 01:50:34;;;;;;;0.60;0.60;;;;;;;3.10;94.70;98292.22;29393;262;64009;-56
2024/02/02 01:51:06;;;;;;;0.60;0.60;;;;;;;3.10;94.89;98296.75;29395;210;63009;-56
2024/02/02 01:51:38;;;;;;;0.65;0.65;;;;;;;3.10;95.15;98294.91;29395;226;63005;-56
2024/02/02 01:52:10;;;;;;;0.60;0.60;;;;;;;3.11;95.37;98296.53;29395;259;63009;-56
2024/02/02 01:52:41;;;;;;;0.65;0.65;;;;;;;3.12;95.64;98294.69;29395;211;63005;-56
2024/02/02 01:53:13;;;;;;;0.60;0.60;;;;;;;3.15;95.81;98299.59;29395;336;63016;-56
2024/02/02 01:53:45;;;;;;;0.60;0.60;;;;;;;3.12;95.22;98294.69;29395;222;63004;-56
2024/02/02 01:54:16;;;;;;;0.60;0.60;;;;;;;3.11;94.60;98291.19;29395;353;63009;-56
2024/02/02 01:54:48;;;;;;;0.60;0.60;;;;;;;3.08;94.69;98296.97;29395;200;63010;-56
2024/02/02 01:55:20;;;;;;;0.60;0.60;;;;;;;3.07;94.84;98298.00;29395;198;63009;-56
2024/02/02 01:55:51;;;;;;;0.70;0.70;;;;;;;3.07;95.19;98298.00;29393;216;64008;-57
2024/02/02 01:56:23;;;;;;;0.62;0.62;;;;;;;3.10;95.21;98294.91;29395;213;63008;-56
2024/02/02 01:56:55;;;;;;;0.60;0.60;;;;;;;3.10;94.88;98296.75;29395;215;63004;-56
2024/02/02 01:57:27;;;;;;;0.60;0.60;;;;;;;3.10;94.68;98297.56;29395;203;63008;-56
2024/02/02 01:57:58;;;;;;;0.60;0.60;;;;;;;3.09;94.79;98295.09;29395;197;63010;-56
2024/02/02 01:58:29;;;;;;;0.70;0.70;;;;;;;3.09;95.06;98295.94;29395;197;63009;-56
2024/02/02 01:59:05;;;;;;;0.70;0.70;;;;;;;3.09;95.24;98293.25;29395;222;63014;-56
2024/02/02 01:59:37;;;;;;;0.60;0.60;;;;;;;3.10;95.60;98292.22;29395;202;63018;-56
2024/02/02 02:00:10;;;;;;;0.70;0.70;;;;;;;3.10;95.58;98297.56;29395;372;63005;-56
2024/02/02 02:00:41;;;;;;;0.68;0.68;;;;;;;3.10;95.84;98297.56;29395;209;63009;-56
2024/02/02 02:01:14;;;;;;;0.70;0.70;;;;;;;3.09;95.46;98295.94;29394;214;64009;-57
2024/02/02 02:01:46;;;;;;;0.70;0.70;;;;;;;3.08;95.23;98294.28;29395;272;63009;-56
2024/02/02 02:02:20;;;;;;;0.60;0.60;;;;;;;3.07;95.21;98298.00;29395;198;63004;-56
2024/02/02 02:02:52;;;;;;;0.70;0.70;;;;;;;3.09;95.63;98303.97;29395;221;63009;-56
2024/02/02 02:03:23;;;;;;;0.70;0.70;;;;;;;3.05;95.01;98305.44;29395;210;63004;-56
2024/02/02 02:03:55;;;;;;;0.70;0.70;;;;;;;3.04;95.12;98303.78;29395;206;63008;-55
2024/02/02 02:04:28;;;;;;;0.60;0.60;;;;;;;3.03;95.04;98308.31;29395;210;63011;-66
2024/02/02 02:05:00;;;;;;;0.60;0.60;;;;;;;3.03;95.40;98302.13;29395;232;63009;-55
2024/02/02 02:05:31;;;;;;;0.70;0.70;;;;;;;3.05;95.63;98315.31;29395;233;63010;-56
2024/02/02 02:06:03;;;;;;;0.60;0.60;;;;;;;3.05;96.11;98312.66;29395;299;63016;-56
2024/02/02 02:06:35;;;;;;;0.70;0.70;;;;;;;3.03;97.08;98307.50;29394;202;64009;-57
2024/02/02 02:07:07;;;;;;;0.60;0.60;;;;;;;3.02;97.45;98303.97;29395;245;63009;-56
2024/02/02 02:07:44;;;;;;;0.68;0.68;;;;;;;3.01;98.62;98305.03;29395;218;63005;-56
2024/02/02 02:08:18;;;;;;;0.70;0.70;;;;;;;3.00;98.73;98305.22;29395;224;63009;-56
2024/02/02 02:08:53;;;;;;;0.70;0.70;;;;;;;2.94;98.63;98298.84;29395;274;63004;-56
2024/02/02 02:09:24;;;;;;;0.70;0.70;;;;;;;2.99;98.66;98307.09;29395;334;63009;-56
2024/02/02 02:09:56;;;;;;;0.70;0.70;;;;;;;2.98;98.67;98302.75;29395;197;63004;-56
2024/02/02 02:10:29;;;;;;;0.70;0.70;;;;;;;2.98;98.89;98300.06;29395;333;63009;-56
2024/02/02 02:11:00;;;;;;;0.65;0.65;;;;;;;3.00;98.73;98299.88;29395;235;63004;-56
2024/02/02 02:11:32;;;;;;;0.60;0.60;;;;;;;3.00;98.89;98299.88;29395;295;63008;-56
2024/02/02 02:12:05;;;;;;;0.60;0.60;;;;;;;3.01;98.68;98288.09;29394;219;64009;-56
2024/02/02 02:12:37;;;;;;;0.60;0.60;;;;;;;3.03;98.48;98288.72;29395;227;63009;-56
2024/02/02 02:13:08;;;;;;;0.60;0.60;;;;;;;3.04;98.12;98298.41;29395;234;63005;-56
2024/02/02 02:13:40;;;;;;;0.70;0.70;;;;;;;3.05;97.96;98293.87;29395;234;63009;-56
2024/02/02 02:14:11;;;;;;;6.32;5.97;;;;;;;3.05;97.96;98294.69;29395;218;63005;-56
2024/02/02 02:14:43;;;;;;;0.60;0.60;;;;;;;3.02;97.55;98285.22;29395;198;63013;-56
2024/02/02 02:15:15;;;;;;;0.60;0.60;;;;;;;3.00;96.11;98291.81;29395;264;63005;-56
2024/02/02 02:15:47;;;;;;;0.60;0.60;;;;;;;2.97;95.79;98286.87;29395;223;63009;-56
2024/02/02 02:16:19;;;;;;;0.60;0.60;;;;;;;2.98;95.64;98288.53;29395;203;63018;-64
2024/02/02 02:16:51;;;;;;;0.62;0.62;;;;;;;3.00;95.99;98289.13;29395;222;63009;-55
2024/02/02 02:17:22;;;;;;;0.70;0.70;;;;;;;3.02;96.38;98281.72;29394;215;64009;-56
2024/02/02 02:17:53;;;;;;;0.60;0.60;;;;;;;3.04;96.06;98282.31;29395;202;63009;-56
2024/02/02 02:18:24;;;;;;;0.60;0.60;;;;;;;3.04;95.81;98282.31;29395;199;63004;-56
2024/02/02 02:18:56;;;;;;;0.60;0.60;;;;;;;3.07;95.75;98281.06;29395;212;63008;-56
2024/02/02 02:19:27;;;;;;;0.60;0.60;;;;;;;3.05;95.40;98278.59;29395;229;63005;-56
2024/02/02 02:19:59;;;;;;;0.60;0.60;;;;;;;3.04;94.83;98282.31;29395;200;63009;-56
2024/02/02 02:20:32;;;;;;;0.60;0.60;;;;;;;3.06;94.78;98287.47;29395;243;63005;-56
2024/02/02 02:21:27;;;;;;;0.70;0.70;;;;;;;3.06;94.69;98288.31;29395;297;63009;-56
2024/02/02 02:22:01;;;;;;;0.70;0.70;;;;;;;3.08;94.67;98283.56;29395;237;63005;-56
2024/02/02 02:22:33;;;;;;;0.70;0.70;;;;;;;3.10;94.87;98286.03;29394;245;64013;-56
2024/02/02 02:23:04;;;;;;;0.60;0.60;;;;;;;3.09;94.96;98284.38;29395;304;63005;-63
2024/02/02 02:23:36;;;;;;;0.60;0.60;;;;;;;3.08;94.91;98288.91;29395;226;63015;-57
2024/02/02 02:24:08;;;;;;;0.60;0.60;;;;;;;3.06;95.04;98290.16;29395;196;63004;-55
2024/02/02 02:24:40;;;;;;;0.70;0.70;;;;;;;3.07;94.87;98286.44;29395;234;63009;-56
2024/02/02 02:25:12;;;;;;;0.70;0.70;;;;;;;3.07;95.17;98287.25;29395;202;63004;-55
2024/02/02 02:25:43;;;;;;;0.60;0.60;;;;;;;3.04;95.03;98287.69;29395;279;63009;-55
2024/02/02 02:26:15;;;;;;;0.60;0.60;;;;;;;3.04;95.23;98287.69;29395;208;63004;-56
2024/02/02 02:26:47;;;;;;;0.70;0.70;;;;;;;3.00;95.31;98291.81;29395;238;63008;-55
2024/02/02 02:27:18;;;;;;;0.60;0.60;;;;;;;3.00;95.17;98294.50;29395;227;63005;-64
2024/02/02 02:27:50;;;;;;;0.60;0.60;;;;;;;2.97;94.92;98292.25;29394;211;64014;-57
2024/02/02 02:28:21;;;;;;;0.60;0.60;;;;;;;2.96;95.29;98295.94;29395;230;63005;-55
2024/02/02 02:28:53;;;;;;;0.80;0.80;;;;;;;2.97;95.23;98292.25;29395;202;63009;-57
2024/02/02 02:29:24;;;;;;;0.60;0.60;;;;;;;2.96;95.56;98301.31;29395;203;63005;-56
2024/02/02 02:29:58;;;;;;;0.80;0.80;;;;;;;2.97;95.67;98297.59;29395;230;63009;-56
2024/02/02 02:30:33;;;;;;;0.60;0.60;;;;;;;2.96;95.76;98293.28;29395;307;63005;-56
2024/02/02 02:31:04;;;;;;;0.70;0.70;;;;;;;2.95;95.62;98281.72;29395;229;63009;-56
2024/02/02 02:31:36;;;;;;;0.70;0.70;;;;;;;2.98;95.53;98293.87;29395;207;63004;-57
2024/02/02 02:32:08;;;;;;;0.60;0.60;;;;;;;2.97;95.10;98286.87;29395;197;63009;-56
2024/02/02 02:32:39;;;;;;;0.70;0.70;;;;;;;2.98;95.25;98288.53;29395;275;63004;-63
2024/02/02 02:33:11;;;;;;;0.70;0.70;;;;;;;2.98;95.32;98283.16;29394;211;64013;-56
2024/02/02 02:33:44;;;;;;;0.70;0.70;;;;;;;2.99;95.77;98292.84;29395;260;63004;-56